Time;durP1;ratioP1;P1;durP2;ratioP2;P2;SDS_P1;SDS_P2;PMS_P1;PMS_P2;Temp;Humidity;BMP_temperature;BMP_pressure;BME280_temperature;BME280_humidity;BME280_pressure;Samples;Min_cycle;Max_cycle;Signal;HPM_P1;HPM_P2
2021/12/06 00:01:40;;;;;;;21.45;10.43;;;;;;;;;;4981494;28;20045;-73
2021/12/06 00:04:14;;;;;;;24.35;9.95;;;;;;;;;;4994518;28;20026;-77
2021/12/06 00:06:43;;;;;;;17.05;9.70;;;;;;;;;;4982266;28;20042;-74
2021/12/06 00:09:12;;;;;;;22.30;10.40;;;;;;;;;;4981438;28;20078;-75
2021/12/06 00:11:39;;;;;;;18.10;10.27;;;;;;;;;;4982600;28;20056;-75
2021/12/06 00:14:05;;;;;;;16.17;9.82;;;;;;;;;;4980925;28;20087;-75
2021/12/06 00:16:31;;;;;;;17.70;8.90;;;;;;;;;;4980079;28;20042;-74
2021/12/06 00:18:57;;;;;;;16.02;8.75;;;;;;;;;;4980909;28;20042;-76
2021/12/06 00:21:23;;;;;;;17.95;8.50;;;;;;;;;;4982485;28;20038;-76
2021/12/06 00:23:49;;;;;;;18.67;9.77;;;;;;;;;;4981130;28;20037;-76
2021/12/06 00:26:15;;;;;;;18.52;9.45;;;;;;;;;;4981958;28;20034;-75
2021/12/06 00:28:43;;;;;;;17.13;9.00;;;;;;;;;;4980807;28;20046;-75
2021/12/06 00:31:10;;;;;;;22.95;10.07;;;;;;;;;;4981959;28;20038;-75
2021/12/06 00:33:36;;;;;;;20.52;11.00;;;;;;;;;;4980317;28;20117;-74
2021/12/06 00:36:05;;;;;;;21.08;9.40;;;;;;;;;;4981845;28;20501;-74
2021/12/06 00:38:33;;;;;;;15.30;9.30;;;;;;;;;;4980038;28;20042;-74
2021/12/06 00:40:59;;;;;;;14.07;8.10;;;;;;;;;;4980871;28;20038;-77
2021/12/06 00:43:24;;;;;;;21.77;9.43;;;;;;;;;;4980302;28;21078;-75
2021/12/06 00:45:50;;;;;;;14.88;8.95;;;;;;;;;;4980923;28;20042;-74
2021/12/06 00:48:16;;;;;;;16.33;8.18;;;;;;;;;;4979632;28;20030;-73
2021/12/06 00:50:43;;;;;;;15.07;8.98;;;;;;;;;;4980601;28;20121;-74
2021/12/06 00:53:10;;;;;;;14.40;8.02;;;;;;;;;;4981658;28;20030;-74
2021/12/06 00:55:37;;;;;;;11.85;8.63;;;;;;;;;;4981194;28;20675;-74
2021/12/06 00:58:03;;;;;;;16.88;9.55;;;;;;;;;;4979245;28;20034;-74
2021/12/06 01:00:39;;;;;;;17.27;9.57;;;;;;;;;;4979583;28;20030;-74
2021/12/06 01:03:10;;;;;;;17.00;9.48;;;;;;;;;;4981706;28;20173;-74
2021/12/06 01:05:37;;;;;;;16.27;9.82;;;;;;;;;;4979483;28;20041;-74
2021/12/06 01:08:03;;;;;;;16.80;9.48;;;;;;;;;;4980793;28;20175;-74
2021/12/06 01:10:30;;;;;;;18.33;9.50;;;;;;;;;;4978458;28;20066;-75
2021/12/06 01:12:57;;;;;;;14.40;9.30;;;;;;;;;;4977588;28;20026;-74
2021/12/06 01:15:23;;;;;;;16.15;8.55;;;;;;;;;;4979063;28;20239;-76
2021/12/06 01:17:49;;;;;;;16.55;9.68;;;;;;;;;;4979647;28;20400;-74
2021/12/06 01:20:20;;;;;;;13.15;8.82;;;;;;;;;;4962438;28;20381;-75
2021/12/06 01:22:53;;;;;;;13.33;8.63;;;;;;;;;;4978429;28;20038;-74
2021/12/06 01:34:02;;;;;;;11.88;7.78;;;;;;;;;;4984246;28;20038;-77
2021/12/06 01:39:18;;;;;;;13.20;7.68;;;;;;;;;;4984697;28;20520;-75
2021/12/06 01:41:51;;;;;;;16.88;9.13;;;;;;;;;;4986792;28;20083;-75
2021/12/06 01:44:23;;;;;;;18.98;9.98;;;;;;;;;;4983998;28;20026;-75
2021/12/06 01:47:05;;;;;;;16.52;8.80;;;;;;;;;;4988465;28;20038;-76
2021/12/06 01:49:35;;;;;;;16.77;9.00;;;;;;;;;;4984525;28;20030;-74
2021/12/06 01:52:05;;;;;;;18.20;9.75;;;;;;;;;;4988728;28;20061;-74
2021/12/06 01:54:31;;;;;;;18.77;10.13;;;;;;;;;;4983224;28;20042;-75
2021/12/06 01:56:57;;;;;;;17.35;10.57;;;;;;;;;;4984538;28;20061;-75
2021/12/06 01:59:25;;;;;;;18.85;10.43;;;;;;;;;;4984219;28;20026;-75
2021/12/06 02:01:50;;;;;;;20.05;10.38;;;;;;;;;;4988376;28;20579;-76
2021/12/06 02:04:17;;;;;;;19.13;10.73;;;;;;;;;;4983544;28;20034;-77
2021/12/06 02:06:44;;;;;;;15.75;9.55;;;;;;;;;;4986916;28;20484;-75
2021/12/06 02:09:13;;;;;;;15.60;9.73;;;;;;;;;;4984354;28;20038;-75
2021/12/06 02:11:39;;;;;;;18.80;8.77;;;;;;;;;;4986131;28;20070;-76
2021/12/06 02:17:01;;;;;;;13.40;8.18;;;;;;;;;;4983297;28;20049;-75
2021/12/06 02:19:32;;;;;;;11.73;7.70;;;;;;;;;;4985327;28;20038;-76
2021/12/06 02:21:59;;;;;;;14.50;8.27;;;;;;;;;;4987007;28;20098;-76
2021/12/06 02:24:25;;;;;;;14.50;7.40;;;;;;;;;;4983614;28;20125;-75
2021/12/06 02:26:51;;;;;;;14.05;7.25;;;;;;;;;;4987835;28;20038;-74
2021/12/06 02:29:17;;;;;;;10.55;7.68;;;;;;;;;;4983892;28;20045;-75
2021/12/06 02:31:43;;;;;;;11.55;7.68;;;;;;;;;;4986693;28;20030;-75
2021/12/06 02:34:08;;;;;;;11.68;8.35;;;;;;;;;;4984085;28;20030;-75
2021/12/06 02:36:34;;;;;;;14.70;8.73;;;;;;;;;;4987427;28;20087;-75
2021/12/06 02:39:00;;;;;;;12.88;8.05;;;;;;;;;;4984121;28;20050;-75
2021/12/06 02:41:26;;;;;;;11.48;8.10;;;;;;;;;;4982796;28;20060;-75
2021/12/06 02:43:53;;;;;;;13.68;8.32;;;;;;;;;;4980961;28;20018;-76
2021/12/06 02:46:20;;;;;;;11.35;7.60;;;;;;;;;;4984736;28;20400;-75
2021/12/06 02:48:49;;;;;;;11.90;7.95;;;;;;;;;;4980473;28;20031;-76
2021/12/06 02:51:15;;;;;;;13.68;9.07;;;;;;;;;;4981970;28;20030;-74
2021/12/06 02:53:41;;;;;;;12.13;8.13;;;;;;;;;;4980428;28;20034;-75
2021/12/06 02:56:28;;;;;;;14.68;8.60;;;;;;;;;;4983632;28;20040;-75
2021/12/06 02:58:57;;;;;;;14.38;7.53;;;;;;;;;;4977773;28;20046;-74
2021/12/06 03:01:41;;;;;;;11.43;7.40;;;;;;;;;;4979624;28;20038;-74
2021/12/06 03:04:08;;;;;;;10.48;7.05;;;;;;;;;;4980172;28;20042;-75
2021/12/06 03:06:35;;;;;;;9.93;6.85;;;;;;;;;;4981750;28;20053;-74
2021/12/06 03:09:11;;;;;;;11.50;7.78;;;;;;;;;;4982091;28;20042;-75
2021/12/06 03:11:39;;;;;;;15.43;7.85;;;;;;;;;;4980880;28;20085;-76
2021/12/06 03:14:07;;;;;;;11.20;7.13;;;;;;;;;;4981678;28;20402;-76
2021/12/06 03:16:33;;;;;;;12.15;7.30;;;;;;;;;;4982756;28;20610;-74
2021/12/06 03:19:00;;;;;;;9.95;7.15;;;;;;;;;;4980445;28;20038;-74
2021/12/06 03:21:26;;;;;;;10.73;7.05;;;;;;;;;;4980636;28;20079;-75
2021/12/06 03:23:55;;;;;;;12.02;7.43;;;;;;;;;;4980364;28;20038;-76
2021/12/06 03:26:21;;;;;;;12.30;7.88;;;;;;;;;;4982554;28;20041;-74
2021/12/06 03:28:48;;;;;;;14.52;8.60;;;;;;;;;;4980902;28;20031;-74
2021/12/06 03:31:17;;;;;;;15.90;9.15;;;;;;;;;;4978710;28;20054;-75
2021/12/06 03:33:46;;;;;;;13.45;8.00;;;;;;;;;;4980150;28;20042;-76
2021/12/06 03:36:13;;;;;;;10.82;8.15;;;;;;;;;;4979053;28;20030;-74
2021/12/06 03:38:41;;;;;;;10.68;7.30;;;;;;;;;;4980258;28;20155;-75
2021/12/06 03:41:09;;;;;;;13.20;7.72;;;;;;;;;;4983264;28;20105;-76
2021/12/06 03:43:36;;;;;;;10.77;6.88;;;;;;;;;;4979094;28;20622;-75
2021/12/06 03:46:02;;;;;;;10.50;6.82;;;;;;;;;;4982352;28;20030;-74
2021/12/06 03:48:29;;;;;;;12.07;7.30;;;;;;;;;;4980443;28;20149;-75
2021/12/06 03:50:55;;;;;;;9.15;6.85;;;;;;;;;;4983157;28;20092;-74
2021/12/06 03:53:22;;;;;;;8.43;6.35;;;;;;;;;;4978171;28;20030;-74
2021/12/06 03:55:48;;;;;;;11.88;7.93;;;;;;;;;;4982468;28;20041;-75
2021/12/06 03:58:14;;;;;;;10.07;6.82;;;;;;;;;;4979347;28;20068;-76
2021/12/06 04:00:40;;;;;;;10.55;7.28;;;;;;;;;;4981460;28;20076;-74
2021/12/06 04:03:07;;;;;;;14.27;7.75;;;;;;;;;;4981239;28;20535;-74
2021/12/06 04:05:33;;;;;;;12.77;7.43;;;;;;;;;;4978803;28;20030;-76
2021/12/06 04:07:58;;;;;;;17.33;8.88;;;;;;;;;;4981446;28;20042;-75
2021/12/06 04:10:26;;;;;;;13.98;7.85;;;;;;;;;;4981122;28;20026;-74
2021/12/06 04:12:55;;;;;;;25.23;9.77;;;;;;;;;;4981310;28;20172;-74
2021/12/06 04:15:22;;;;;;;26.48;10.10;;;;;;;;;;4980793;28;20954;-75
2021/12/06 04:17:49;;;;;;;28.33;10.63;;;;;;;;;;4979318;28;20042;-75
2021/12/06 04:20:15;;;;;;;21.95;9.07;;;;;;;;;;4994953;28;20064;-74
2021/12/06 04:22:42;;;;;;;23.10;8.82;;;;;;;;;;4981108;28;20416;-76
2021/12/06 04:25:12;;;;;;;26.77;9.88;;;;;;;;;;4981578;28;20022;-74
2021/12/06 04:27:40;;;;;;;27.33;9.57;;;;;;;;;;4980010;28;20565;-74
2021/12/06 04:30:09;;;;;;;22.83;9.85;;;;;;;;;;4980802;28;20023;-74
2021/12/06 04:32:36;;;;;;;19.15;9.27;;;;;;;;;;4980502;28;20854;-75
2021/12/06 04:35:01;;;;;;;10.70;7.18;;;;;;;;;;4981493;28;20042;-74
2021/12/06 04:37:27;;;;;;;13.32;6.97;;;;;;;;;;4980161;28;20125;-74
2021/12/06 04:39:54;;;;;;;15.15;7.47;;;;;;;;;;4980869;28;20088;-74
2021/12/06 04:42:21;;;;;;;13.00;8.25;;;;;;;;;;4978642;28;20034;-73
2021/12/06 04:44:47;;;;;;;15.15;8.00;;;;;;;;;;4980147;28;20030;-74
2021/12/06 04:47:15;;;;;;;22.40;9.88;;;;;;;;;;4979861;28;20610;-73
2021/12/06 04:49:41;;;;;;;19.63;9.88;;;;;;;;;;4978790;28;20038;-74
2021/12/06 04:52:12;;;;;;;17.88;8.35;;;;;;;;;;4978222;28;20516;-74
2021/12/06 04:54:44;;;;;;;14.43;7.65;;;;;;;;;;4978418;28;20125;-74
2021/12/06 04:57:13;;;;;;;16.85;7.60;;;;;;;;;;4977007;28;20034;-73
2021/12/06 04:59:42;;;;;;;13.52;7.60;;;;;;;;;;4977642;28;20075;-74
2021/12/06 05:02:15;;;;;;;17.90;8.52;;;;;;;;;;4977509;28;20118;-75
2021/12/06 05:04:47;;;;;;;32.72;12.90;;;;;;;;;;4991473;28;20116;-76
2021/12/06 05:07:24;;;;;;;27.08;10.60;;;;;;;;;;4993700;28;20077;-75
2021/12/06 05:09:50;;;;;;;31.33;10.75;;;;;;;;;;4976802;28;20088;-76
2021/12/06 05:12:23;;;;;;;32.05;10.93;;;;;;;;;;4978809;28;20464;-76
2021/12/06 05:14:49;;;;;;;24.65;9.70;;;;;;;;;;4977327;28;20055;-75
2021/12/06 05:17:15;;;;;;;23.48;9.70;;;;;;;;;;4979391;28;20091;-75
2021/12/06 05:19:41;;;;;;;23.77;8.43;;;;;;;;;;4978987;28;20925;-75
2021/12/06 05:22:08;;;;;;;27.75;8.13;;;;;;;;;;4978729;28;20026;-75
2021/12/06 05:24:35;;;;;;;21.13;8.57;;;;;;;;;;4978980;28;20030;-75
2021/12/06 05:27:01;;;;;;;22.60;9.57;;;;;;;;;;4979293;28;20526;-76
2021/12/06 05:29:30;;;;;;;20.17;8.98;;;;;;;;;;4979273;28;20037;-75
2021/12/06 05:31:58;;;;;;;20.50;8.77;;;;;;;;;;4978943;28;20035;-76
2021/12/06 05:34:31;;;;;;;17.52;9.00;;;;;;;;;;4977564;28;20578;-75
2021/12/06 05:36:57;;;;;;;21.65;9.13;;;;;;;;;;4981510;28;20038;-76
2021/12/06 05:39:24;;;;;;;20.10;9.25;;;;;;;;;;4982246;28;20042;-74
2021/12/06 05:41:50;;;;;;;15.20;8.40;;;;;;;;;;4981169;28;20084;-76
2021/12/06 05:44:15;;;;;;;15.88;8.13;;;;;;;;;;4981709;28;20061;-74
2021/12/06 05:46:41;;;;;;;14.93;7.88;;;;;;;;;;4980658;28;20034;-76
2021/12/06 05:49:06;;;;;;;15.45;9.48;;;;;;;;;;4977512;28;20061;-76
2021/12/06 05:51:32;;;;;;;16.55;8.63;;;;;;;;;;4980283;28;20494;-75
2021/12/06 05:53:57;;;;;;;18.73;8.75;;;;;;;;;;4976664;28;20523;-76
2021/12/06 05:56:23;;;;;;;19.38;7.90;;;;;;;;;;4978959;28;20046;-76
2021/12/06 05:58:49;;;;;;;15.98;8.18;;;;;;;;;;4981420;28;20042;-76
2021/12/06 06:01:14;;;;;;;17.38;8.90;;;;;;;;;;4980170;28;20026;-76
2021/12/06 06:03:40;;;;;;;18.77;7.82;;;;;;;;;;4978507;28;20519;-75
2021/12/06 06:06:05;;;;;;;17.40;8.80;;;;;;;;;;4979314;28;20046;-76
2021/12/06 06:08:31;;;;;;;14.10;7.63;;;;;;;;;;4980931;28;20511;-76
2021/12/06 06:10:56;;;;;;;21.85;9.80;;;;;;;;;;4981877;28;20515;-77
2021/12/06 06:13:22;;;;;;;21.85;8.82;;;;;;;;;;4980992;28;20033;-75
2021/12/06 06:15:50;;;;;;;18.10;8.73;;;;;;;;;;4981149;28;20062;-76
2021/12/06 06:18:17;;;;;;;25.35;8.52;;;;;;;;;;4981481;28;20431;-74
2021/12/06 06:20:47;;;;;;;19.15;8.25;;;;;;;;;;4982863;28;20508;-75
2021/12/06 06:23:13;;;;;;;20.23;9.00;;;;;;;;;;4983562;28;20053;-76
2021/12/06 06:25:39;;;;;;;16.42;8.88;;;;;;;;;;4982266;28;20038;-75
2021/12/06 06:28:05;;;;;;;20.10;8.75;;;;;;;;;;4984893;28;20039;-76
2021/12/06 06:30:31;;;;;;;20.40;8.95;;;;;;;;;;4982841;28;20101;-75
2021/12/06 06:32:57;;;;;;;18.60;10.15;;;;;;;;;;4985233;28;20882;-75
2021/12/06 06:35:24;;;;;;;21.55;8.90;;;;;;;;;;4986952;28;20053;-76
2021/12/06 06:37:50;;;;;;;19.17;9.25;;;;;;;;;;4991229;28;20035;-76
2021/12/06 06:40:16;;;;;;;24.92;11.10;;;;;;;;;;4984746;28;20395;-78
2021/12/06 06:42:43;;;;;;;34.65;11.43;;;;;;;;;;4984372;28;20038;-76
2021/12/06 06:45:10;;;;;;;29.98;11.13;;;;;;;;;;4985143;28;20035;-75
2021/12/06 06:47:36;;;;;;;26.70;10.60;;;;;;;;;;4984514;28;20049;-77
2021/12/06 06:50:02;;;;;;;27.58;9.98;;;;;;;;;;4981588;28;20041;-74
2021/12/06 06:52:27;;;;;;;30.35;10.85;;;;;;;;;;4980096;28;20141;-74
2021/12/06 06:54:53;;;;;;;31.60;11.32;;;;;;;;;;4981048;28;20042;-75
2021/12/06 06:57:18;;;;;;;33.72;12.30;;;;;;;;;;4982183;28;20034;-78
2021/12/06 06:59:45;;;;;;;25.50;11.20;;;;;;;;;;4983828;28;20073;-75
2021/12/06 07:02:12;;;;;;;28.30;11.43;;;;;;;;;;4981611;28;20034;-72
2021/12/06 07:04:38;;;;;;;27.73;11.30;;;;;;;;;;4979934;28;20121;-74
2021/12/06 07:07:03;;;;;;;33.03;12.50;;;;;;;;;;4984445;28;20134;-74
2021/12/06 07:09:29;;;;;;;33.67;12.23;;;;;;;;;;4984106;28;20038;-75
2021/12/06 07:11:54;;;;;;;40.20;11.93;;;;;;;;;;4981727;28;20501;-74
2021/12/06 07:14:20;;;;;;;38.40;12.90;;;;;;;;;;4983238;28;20038;-74
2021/12/06 07:16:48;;;;;;;32.72;12.50;;;;;;;;;;4982857;28;20133;-74
2021/12/06 07:19:14;;;;;;;32.03;12.70;;;;;;;;;;4982115;28;20052;-75
2021/12/06 07:21:39;;;;;;;31.45;13.10;;;;;;;;;;4981906;28;20054;-75
2021/12/06 07:24:05;;;;;;;38.10;14.57;;;;;;;;;;4981817;28;20099;-75
2021/12/06 07:26:31;;;;;;;27.90;10.90;;;;;;;;;;4980247;28;20030;-75
2021/12/06 07:28:57;;;;;;;31.83;12.38;;;;;;;;;;4982124;28;20117;-74
2021/12/06 07:31:24;;;;;;;35.60;13.23;;;;;;;;;;4981617;28;20026;-75
2021/12/06 07:33:51;;;;;;;34.88;13.32;;;;;;;;;;4981047;28;20034;-75
2021/12/06 07:36:18;;;;;;;43.97;14.80;;;;;;;;;;4982090;28;20504;-74
2021/12/06 07:38:44;;;;;;;37.30;13.63;;;;;;;;;;4981594;28;20080;-73
2021/12/06 07:41:16;;;;;;;51.95;12.68;;;;;;;;;;4982931;28;20069;-74
2021/12/06 07:43:42;;;;;;;54.42;13.90;;;;;;;;;;4979744;28;20061;-73
2021/12/06 07:46:09;;;;;;;44.40;12.95;;;;;;;;;;4982019;28;20042;-74
2021/12/06 07:48:35;;;;;;;60.03;15.18;;;;;;;;;;4981715;28;20084;-75
2021/12/06 07:51:01;;;;;;;53.60;13.98;;;;;;;;;;4982939;28;20492;-75
2021/12/06 07:53:29;;;;;;;54.88;14.73;;;;;;;;;;4980200;28;20523;-72
2021/12/06 07:55:55;;;;;;;43.40;13.20;;;;;;;;;;4980978;28;20141;-74
2021/12/06 07:58:20;;;;;;;39.33;15.13;;;;;;;;;;4981970;28;20121;-74
2021/12/06 08:00:48;;;;;;;47.40;12.45;;;;;;;;;;4981408;28;20042;-74
2021/12/06 08:03:15;;;;;;;37.20;13.48;;;;;;;;;;4981170;28;20034;-74
2021/12/06 08:05:45;;;;;;;47.80;14.30;;;;;;;;;;4980427;28;20061;-76
2021/12/06 08:08:24;;;;;;;60.63;14.10;;;;;;;;;;4981790;28;20066;-76
2021/12/06 08:10:53;;;;;;;75.70;14.43;;;;;;;;;;4982895;28;20188;-77
2021/12/06 08:13:26;;;;;;;85.47;13.52;;;;;;;;;;4981575;28;20402;-78
2021/12/06 08:15:56;;;;;;;39.00;11.48;;;;;;;;;;4981143;28;20054;-76
2021/12/06 08:18:22;;;;;;;68.38;15.48;;;;;;;;;;4979447;28;20091;-78
2021/12/06 08:20:49;;;;;;;53.38;14.65;;;;;;;;;;4981394;28;20042;-78
2021/12/06 08:23:15;;;;;;;59.65;14.55;;;;;;;;;;4980703;28;20030;-75
2021/12/06 08:25:44;;;;;;;67.82;14.65;;;;;;;;;;4980664;28;20034;-74
2021/12/06 08:28:09;;;;;;;58.53;17.13;;;;;;;;;;4981577;28;20103;-77
2021/12/06 08:30:35;;;;;;;46.15;12.73;;;;;;;;;;4980751;28;20049;-78
2021/12/06 08:33:02;;;;;;;69.78;17.70;;;;;;;;;;4982771;28;20124;-74
2021/12/06 08:35:28;;;;;;;60.92;15.45;;;;;;;;;;4979664;28;20134;-73
2021/12/06 08:37:56;;;;;;;68.07;16.73;;;;;;;;;;4981501;28;20046;-75
2021/12/06 08:40:22;;;;;;;50.10;15.10;;;;;;;;;;4979292;28;20038;-77
2021/12/06 08:42:48;;;;;;;36.67;13.45;;;;;;;;;;4981924;28;20403;-75
2021/12/06 08:45:14;;;;;;;67.32;9.27;;;;;;;;;;4980373;28;20045;-76
2021/12/06 08:47:40;;;;;;;39.95;12.73;;;;;;;;;;4982368;28;20046;-75
2021/12/06 08:50:10;;;;;;;36.72;13.60;;;;;;;;;;4980981;28;20038;-76
2021/12/06 08:52:36;;;;;;;63.22;16.45;;;;;;;;;;4982519;28;20650;-74
2021/12/06 08:55:05;;;;;;;56.72;14.90;;;;;;;;;;4980083;28;20042;-75
2021/12/06 08:57:30;;;;;;;46.67;14.60;;;;;;;;;;4981971;28;20046;-77
2021/12/06 08:59:56;;;;;;;43.03;15.45;;;;;;;;;;4982127;28;20045;-79
2021/12/06 09:02:21;;;;;;;37.70;14.15;;;;;;;;;;4982564;28;20096;-74
2021/12/06 09:04:47;;;;;;;41.60;14.98;;;;;;;;;;4979745;28;20487;-75
2021/12/06 09:07:14;;;;;;;43.13;16.23;;;;;;;;;;4983006;28;20037;-74
2021/12/06 09:09:46;;;;;;;43.80;16.80;;;;;;;;;;4981262;28;20038;-76
2021/12/06 09:12:24;;;;;;;28.42;12.73;;;;;;;;;;4981942;28;20472;-76
2021/12/06 09:14:50;;;;;;;41.97;15.40;;;;;;;;;;4977447;28;20045;-77
2021/12/06 09:17:16;;;;;;;23.55;9.77;;;;;;;;;;4982146;28;20038;-76
2021/12/06 09:19:42;;;;;;;31.80;13.05;;;;;;;;;;4979687;28;20053;-77
2021/12/06 09:22:08;;;;;;;33.22;14.45;;;;;;;;;;4979110;28;20107;-77
2021/12/06 09:24:33;;;;;;;43.58;17.17;;;;;;;;;;4979252;28;20022;-77
2021/12/06 09:27:01;;;;;;;40.10;15.65;;;;;;;;;;4987324;28;20026;-78
2021/12/06 09:29:27;;;;;;;35.67;15.35;;;;;;;;;;4985266;28;20049;-76
2021/12/06 09:31:55;;;;;;;37.97;17.08;;;;;;;;;;4980941;28;20038;-77
2021/12/06 09:34:21;;;;;;;30.60;13.50;;;;;;;;;;4978627;28;20038;-78
2021/12/06 09:36:47;;;;;;;33.17;14.63;;;;;;;;;;4982586;28;20050;-73
2021/12/06 09:39:14;;;;;;;27.88;12.65;;;;;;;;;;4980657;28;20492;-77
2021/12/06 09:41:40;;;;;;;30.77;12.57;;;;;;;;;;4980610;28;20057;-76
2021/12/06 09:44:08;;;;;;;34.95;14.73;;;;;;;;;;4979848;28;20034;-76
2021/12/06 09:46:36;;;;;;;35.15;14.40;;;;;;;;;;4978299;28;20124;-76
2021/12/06 09:49:09;;;;;;;29.23;11.20;;;;;;;;;;4980801;28;20034;-78
2021/12/06 09:51:37;;;;;;;32.83;16.52;;;;;;;;;;4983313;28;20103;-79
2021/12/06 09:54:03;;;;;;;33.97;15.95;;;;;;;;;;4982680;28;20049;-79
2021/12/06 09:56:34;;;;;;;36.65;15.93;;;;;;;;;;4983008;28;20035;-76
2021/12/06 09:59:05;;;;;;;29.13;13.13;;;;;;;;;;4982456;28;20105;-77
2021/12/06 10:01:39;;;;;;;20.20;10.18;;;;;;;;;;4983587;28;20045;-77
2021/12/06 10:04:07;;;;;;;23.65;11.73;;;;;;;;;;4983345;28;20034;-78
2021/12/06 10:06:33;;;;;;;22.10;10.25;;;;;;;;;;4984093;28;20049;-77
2021/12/06 10:09:00;;;;;;;24.77;11.52;;;;;;;;;;4984227;28;20038;-78
2021/12/06 10:11:26;;;;;;;18.65;8.55;;;;;;;;;;4982179;28;20034;-77
2021/12/06 10:13:53;;;;;;;29.25;12.25;;;;;;;;;;4982987;28;20041;-78
2021/12/06 10:16:20;;;;;;;17.63;8.20;;;;;;;;;;4982883;28;20042;-78
2021/12/06 10:18:46;;;;;;;11.10;6.57;;;;;;;;;;4983236;28;20053;-77
2021/12/06 10:21:12;;;;;;;31.23;14.32;;;;;;;;;;4984750;28;20026;-78
2021/12/06 10:23:39;;;;;;;29.40;12.77;;;;;;;;;;4983873;28;20106;-75
2021/12/06 10:26:07;;;;;;;33.00;14.25;;;;;;;;;;4982626;28;20087;-76
2021/12/06 10:28:34;;;;;;;31.77;12.75;;;;;;;;;;4981422;28;20034;-76
2021/12/06 10:31:03;;;;;;;28.23;11.40;;;;;;;;;;4981260;28;20042;-75
2021/12/06 10:33:33;;;;;;;27.35;12.02;;;;;;;;;;4981711;28;20084;-76
2021/12/06 10:36:05;;;;;;;16.10;8.52;;;;;;;;;;4981532;28;20064;-76
2021/12/06 10:38:37;;;;;;;20.97;9.53;;;;;;;;;;4982098;28;20034;-75
2021/12/06 10:41:11;;;;;;;16.42;7.30;;;;;;;;;;4981432;28;20042;-76
2021/12/06 10:43:38;;;;;;;16.88;8.68;;;;;;;;;;4981727;28;20568;-76
2021/12/06 10:46:06;;;;;;;14.90;8.30;;;;;;;;;;4982787;28;20046;-76
2021/12/06 10:48:37;;;;;;;24.42;10.82;;;;;;;;;;4983441;28;20027;-76
2021/12/06 10:51:10;;;;;;;32.10;14.15;;;;;;;;;;4982548;28;20435;-75
2021/12/06 10:53:41;;;;;;;25.25;11.90;;;;;;;;;;4982986;28;20471;-75
2021/12/06 10:56:17;;;;;;;18.23;9.50;;;;;;;;;;4982403;28;20043;-76
2021/12/06 10:58:44;;;;;;;14.35;7.85;;;;;;;;;;4983080;28;20180;-75
2021/12/06 11:01:12;;;;;;;26.40;13.43;;;;;;;;;;4980114;28;20544;-75
2021/12/06 11:03:47;;;;;;;30.25;14.25;;;;;;;;;;4981081;28;20049;-76
2021/12/06 11:06:19;;;;;;;14.50;7.22;;;;;;;;;;4981171;28;20065;-76
2021/12/06 11:08:51;;;;;;;23.88;11.35;;;;;;;;;;4982889;28;20342;-74
2021/12/06 11:11:24;;;;;;;29.17;15.37;;;;;;;;;;4979901;28;20109;-75
2021/12/06 11:13:52;;;;;;;31.88;15.38;;;;;;;;;;4983337;28;20386;-78
2021/12/06 11:16:30;;;;;;;31.38;15.93;;;;;;;;;;4982503;28;20046;-73
2021/12/06 11:18:56;;;;;;;37.05;15.77;;;;;;;;;;4982906;28;20174;-73
2021/12/06 11:21:39;;;;;;;18.58;10.82;;;;;;;;;;4983316;28;20030;-78
2021/12/06 11:24:06;;;;;;;26.08;13.75;;;;;;;;;;4982755;28;20501;-77
2021/12/06 11:26:38;;;;;;;22.85;12.50;;;;;;;;;;4983079;28;21099;-74
2021/12/06 11:29:25;;;;;;;20.25;11.98;;;;;;;;;;4984231;28;21112;-76
2021/12/06 11:32:03;;;;;;;24.60;12.45;;;;;;;;;;4984094;28;20849;-76
2021/12/06 11:34:36;;;;;;;24.65;13.32;;;;;;;;;;4982808;28;20141;-75
2021/12/06 11:37:04;;;;;;;26.40;14.27;;;;;;;;;;4983265;28;20560;-74
2021/12/06 11:39:30;;;;;;;12.90;7.82;;;;;;;;;;4981260;28;20072;-75
2021/12/06 11:41:58;;;;;;;13.38;8.00;;;;;;;;;;4985908;28;20034;-73
2021/12/06 11:44:34;;;;;;;19.23;9.90;;;;;;;;;;4980399;28;20042;-73
2021/12/06 11:47:07;;;;;;;18.20;9.20;;;;;;;;;;4984195;28;20045;-75
2021/12/06 11:49:41;;;;;;;14.77;7.68;;;;;;;;;;4980737;28;20034;-75
2021/12/06 11:52:16;;;;;;;23.25;13.02;;;;;;;;;;4999584;28;20032;-74
2021/12/06 11:55:11;;;;;;;29.35;11.93;;;;;;;;;;4984553;28;20045;-72
2021/12/06 11:57:40;;;;;;;26.88;14.20;;;;;;;;;;4985181;28;20869;-73
2021/12/06 12:00:16;;;;;;;31.73;14.85;;;;;;;;;;4981464;28;20068;-74
2021/12/06 12:02:48;;;;;;;21.15;10.95;;;;;;;;;;4983922;28;20071;-75
2021/12/06 12:05:16;;;;;;;;;;;;;;;;;;4982760;28;20508;-73
2021/12/06 12:08:11;;;;;;;17.55;10.13;;;;;;;;;;4984591;28;19917;-73
2021/12/06 12:10:46;;;;;;;22.83;12.13;;;;;;;;;;4981365;28;20580;-76
2021/12/06 12:13:29;;;;;;;20.90;11.75;;;;;;;;;;4982682;28;20125;-74
2021/12/06 12:15:55;;;;;;;;;;;;;;;;;;4983382;28;20050;-76
2021/12/06 12:18:22;;;;;;;21.55;11.18;;;;;;;;;;4981433;28;19922;-76
2021/12/06 12:20:48;;;;;;;23.58;11.95;;;;;;;;;;4982245;28;20046;-75
2021/12/06 12:23:15;;;;;;;24.00;12.65;;;;;;;;;;4983218;28;20056;-75
2021/12/06 12:25:52;;;;;;;21.58;12.65;;;;;;;;;;4979633;28;20038;-75
2021/12/06 12:28:22;;;;;;;17.67;10.63;;;;;;;;;;4982411;28;20038;-74
2021/12/06 12:30:51;;;;;;;25.60;13.18;;;;;;;;;;4979925;28;20122;-75
2021/12/06 12:33:19;;;;;;;23.83;12.45;;;;;;;;;;4981721;28;20176;-77
2021/12/06 12:35:47;;;;;;;24.10;13.85;;;;;;;;;;4981395;28;20077;-77
2021/12/06 12:38:19;;;;;;;24.10;12.82;;;;;;;;;;4962455;28;20034;-77
2021/12/06 12:40:49;;;;;;;23.98;12.70;;;;;;;;;;4979429;28;20627;-78
2021/12/06 12:43:40;;;;;;;18.13;11.90;;;;;;;;;;4982229;28;20046;-75
2021/12/06 12:46:17;;;;;;;24.30;13.40;;;;;;;;;;4981962;28;20039;-72
2021/12/06 12:48:57;;;;;;;21.92;12.98;;;;;;;;;;4981657;28;20050;-74
2021/12/06 12:51:35;;;;;;;22.52;12.77;;;;;;;;;;4979589;28;20109;-75
2021/12/06 12:54:06;;;;;;;23.83;12.05;;;;;;;;;;4981162;28;20480;-76
2021/12/06 12:56:41;;;;;;;23.27;12.15;;;;;;;;;;4963327;28;20038;-75
2021/12/06 12:59:20;;;;;;;22.17;12.40;;;;;;;;;;4982232;28;20412;-74
2021/12/06 13:02:21;;;;;;;19.38;10.23;;;;;;;;;;4981034;28;20050;-74
2021/12/06 13:04:58;;;;;;;29.63;13.52;;;;;;;;;;4979847;28;20058;-75
2021/12/06 13:07:31;;;;;;;23.25;13.45;;;;;;;;;;4982718;28;20149;-74
2021/12/06 13:10:18;;;;;;;22.27;12.38;;;;;;;;;;4979871;28;20599;-74
2021/12/06 13:12:59;;;;;;;24.35;12.25;;;;;;;;;;4981629;28;20050;-74
2021/12/06 13:16:02;;;;;;;24.17;12.88;;;;;;;;;;4979148;28;20066;-75
2021/12/06 13:18:31;;;;;;;27.20;13.73;;;;;;;;;;4954838;28;20416;-72
2021/12/06 13:20:57;;;;;;;22.10;12.43;;;;;;;;;;4982029;28;20171;-73
2021/12/06 13:23:26;;;;;;;20.30;11.98;;;;;;;;;;4981007;28;20125;-71
2021/12/06 13:26:08;;;;;;;24.63;13.35;;;;;;;;;;4980455;28;20121;-76
2021/12/06 13:29:02;;;;;;;28.20;14.13;;;;;;;;;;4980128;28;20038;-73
2021/12/06 13:31:27;;;;;;;20.50;12.10;;;;;;;;;;4977669;28;20045;-75
2021/12/06 13:33:55;;;;;;;20.67;11.13;;;;;;;;;;4977870;28;20038;-73
2021/12/06 13:36:42;;;;;;;25.60;12.43;;;;;;;;;;4979430;28;20030;-74
2021/12/06 13:39:41;;;;;;;20.52;11.88;;;;;;;;;;4980024;28;20050;-73
2021/12/06 13:42:12;;;;;;;25.17;11.88;;;;;;;;;;4980358;28;20036;-75
2021/12/06 13:44:47;;;;;;;21.30;10.32;;;;;;;;;;4976883;28;20046;-75
2021/12/06 13:47:20;;;;;;;21.40;10.55;;;;;;;;;;4982510;28;20441;-75
2021/12/06 13:50:09;;;;;;;20.48;10.27;;;;;;;;;;4980567;28;20149;-76
2021/12/06 13:52:37;;;;;;;17.35;10.60;;;;;;;;;;4981379;28;20034;-76
2021/12/06 13:55:27;;;;;;;20.38;11.68;;;;;;;;;;4978386;28;20142;-75
2021/12/06 13:58:02;;;;;;;17.80;10.85;;;;;;;;;;4978924;28;20043;-75
2021/12/06 14:00:43;;;;;;;20.17;11.25;;;;;;;;;;4980070;28;20501;-75
2021/12/06 14:03:13;;;;;;;16.33;9.95;;;;;;;;;;4982828;28;20053;-76
2021/12/06 14:05:44;;;;;;;18.65;10.18;;;;;;;;;;4974793;28;20034;-76
2021/12/06 14:08:15;;;;;;;15.43;8.75;;;;;;;;;;4975937;28;20042;-76
2021/12/06 14:10:41;;;;;;;15.88;9.57;;;;;;;;;;4977634;28;20034;-74
2021/12/06 14:13:09;;;;;;;15.35;9.38;;;;;;;;;;4981427;28;20075;-77
2021/12/06 14:15:42;;;;;;;13.98;9.15;;;;;;;;;;4978429;28;20049;-77
2021/12/06 14:18:08;;;;;;;17.95;10.40;;;;;;;;;;4978419;28;20030;-74
2021/12/06 14:20:34;;;;;;;20.85;9.70;;;;;;;;;;4980381;28;20058;-73
2021/12/06 14:23:04;;;;;;;18.67;11.35;;;;;;;;;;4979091;28;20096;-75
2021/12/06 14:25:30;;;;;;;17.08;10.65;;;;;;;;;;4962376;28;20034;-76
2021/12/06 14:27:56;;;;;;;13.93;9.65;;;;;;;;;;4982490;28;20553;-76
2021/12/06 14:30:23;;;;;;;20.33;10.98;;;;;;;;;;4977488;28;20121;-74
2021/12/06 14:32:57;;;;;;;20.33;10.15;;;;;;;;;;4980675;28;20693;-72
2021/12/06 14:35:26;;;;;;;21.50;11.43;;;;;;;;;;4978442;28;20085;-73
2021/12/06 14:37:52;;;;;;;21.75;12.07;;;;;;;;;;4984554;28;20527;-75
2021/12/06 14:40:19;;;;;;;18.83;11.00;;;;;;;;;;4982288;28;20038;-76
2021/12/06 14:42:46;;;;;;;20.00;11.93;;;;;;;;;;4985036;28;20450;-73
2021/12/06 14:45:14;;;;;;;20.08;10.77;;;;;;;;;;4981543;28;20029;-73
2021/12/06 14:47:54;;;;;;;23.83;12.23;;;;;;;;;;4982562;28;20050;-74
2021/12/06 14:50:33;;;;;;;20.80;11.30;;;;;;;;;;4982231;28;20047;-74